Terminal Aerodrome Forecast
Issued by NWS

Current Version | Previous Version | Text Only | Print | Product List | Glossary On
Versions: 1 2 3 4 5 6 7 8 9 10 11 12 13 14 15 16 17 18 19 20 21 22 23
000
FTUS43 KMPX 010700 AAA
TAFAXN
TAF AMD
KAXN 010757Z 0108/0206 16014KT 4SM BR OVC006
     FM011600 20011KT P6SM OVC015
     FM012000 21008KT P6SM SCT030 BKN100
     FM020000 27007KT P6SM SCT020 BKN080=

USA.gov is the U.S. government's official web portal to all federal, state and local government web resources and services.